Time;durP1;ratioP1;P1;durP2;ratioP2;P2;SDS_P1;SDS_P2;PMS_P1;PMS_P2;Temp;Humidity;BMP_temperature;BMP_pressure;BME280_temperature;BME280_humidity;BME280_pressure;Samples;Min_cycle;Max_cycle;Signal;HPM_P1;HPM_P2
2022/07/28 00:01:20;;;;;;;2.70;1.50;;;;;15.40;101358.00;;;;10470636;28;20583;-77
2022/07/28 00:06:22;;;;;;;4.50;1.60;;;;;15.30;101349.00;;;;10509063;28;20651;-76
2022/07/28 00:11:24;;;;;;;5.03;1.40;;;;;15.30;101344.00;;;;10496053;28;20193;-76
2022/07/28 00:16:26;;;;;;;3.13;1.90;;;;;15.20;101348.00;;;;10466158;28;20269;-77
2022/07/28 00:21:29;;;;;;;3.97;1.70;;;;;15.10;101341.00;;;;10470527;28;20305;-77
2022/07/28 00:26:31;;;;;;;4.27;1.80;;;;;15.00;101339.00;;;;10467058;28;20205;-76
2022/07/28 00:31:33;;;;;;;3.07;1.53;;;;;14.90;101331.00;;;;10479009;28;20185;-77
2022/07/28 00:36:36;;;;;;;4.47;1.70;;;;;14.90;101334.00;;;;10508457;28;20188;-76
2022/07/28 00:41:39;;;;;;;6.97;1.93;;;;;14.80;101331.00;;;;10473710;28;20307;-76
2022/07/28 00:46:43;;;;;;;3.27;1.77;;;;;14.70;101330.00;;;;10497538;28;20212;-77
2022/07/28 00:51:47;;;;;;;4.67;1.67;;;;;14.60;101312.00;;;;10450445;28;20255;-77
2022/07/28 00:56:49;;;;;;;3.20;1.60;;;;;14.50;101316.00;;;;10465601;28;20280;-77
2022/07/28 01:01:53;;;;;;;2.17;1.83;;;;;14.40;101317.00;;;;10481812;28;20685;-77
2022/07/28 01:07:11;;;;;;;2.27;1.63;;;;;14.30;101321.00;;;;10478846;28;20246;-76
2022/07/28 01:12:20;;;;;;;3.03;1.53;;;;;14.10;101309.00;;;;10522019;28;20284;-76
2022/07/28 01:17:37;;;;;;;4.60;2.20;;;;;14.10;101309.00;;;;10472978;28;20691;-76
2022/07/28 01:22:50;;;;;;;7.67;1.87;;;;;14.00;101302.00;;;;10479555;28;20205;-76
2022/07/28 01:28:12;;;;;;;4.00;1.83;;;;;14.00;101294.00;;;;10472275;28;20224;-77
2022/07/28 01:33:17;;;;;;;4.80;1.60;;;;;13.90;101302.00;;;;10475177;28;20192;-76
2022/07/28 01:38:22;;;;;;;3.03;1.30;;;;;13.90;101300.00;;;;10472262;28;20211;-77
2022/07/28 01:43:27;;;;;;;6.03;1.40;;;;;13.80;101302.00;;;;10446235;28;20209;-76
2022/07/28 01:48:32;;;;;;;5.30;1.63;;;;;13.80;101294.00;;;;10456462;28;20227;-77
2022/07/28 01:53:38;;;;;;;3.70;1.30;;;;;13.70;101295.00;;;;10488941;28;20185;-76
2022/07/28 01:58:43;;;;;;;3.23;1.47;;;;;13.60;101294.00;;;;10520025;28;20200;-76
2022/07/28 02:03:46;;;;;;;2.67;1.50;;;;;13.60;101292.00;;;;10466464;28;20216;-76
2022/07/28 02:08:50;;;;;;;1.97;1.17;;;;;13.50;101288.00;;;;10487730;28;20197;-76
2022/07/28 02:13:55;;;;;;;3.33;1.87;;;;;13.40;101285.00;;;;10480533;28;20186;-76
2022/07/28 02:18:59;;;;;;;3.37;1.33;;;;;13.40;101285.00;;;;10460706;28;20540;-76
2022/07/28 02:24:03;;;;;;;5.77;1.40;;;;;13.30;101290.00;;;;10504166;28;20209;-76
2022/07/28 02:29:08;;;;;;;8.43;1.60;;;;;13.30;101286.00;;;;10527223;28;20279;-76
2022/07/28 02:34:32;;;;;;;4.20;1.57;;;;;13.20;101276.00;;;;10487472;28;20838;-77
2022/07/28 02:39:45;;;;;;;2.93;1.60;;;;;13.20;101278.00;;;;10453856;28;20208;-77
2022/07/28 02:45:05;;;;;;;1.90;1.50;;;;;13.10;101267.00;;;;10481517;28;20196;-77
2022/07/28 02:50:09;;;;;;;3.07;1.57;;;;;13.00;101258.00;;;;10471359;28;20192;-76
2022/07/28 02:55:14;;;;;;;5.30;1.50;;;;;13.00;101266.00;;;;10470163;28;20267;-76
2022/07/28 03:00:17;;;;;;;7.27;2.20;;;;;13.00;101268.00;;;;10477668;28;20255;-77
2022/07/28 03:05:19;;;;;;;2.83;1.70;;;;;13.00;101267.00;;;;10485732;28;20233;-76
2022/07/28 03:10:27;;;;;;;6.87;1.80;;;;;13.00;101267.00;;;;10457474;28;20238;-76
2022/07/28 03:15:36;;;;;;;5.47;1.50;;;;;13.00;101261.00;;;;10510416;28;20238;-76
2022/07/28 03:20:38;;;;;;;3.87;1.50;;;;;12.90;101261.00;;;;10484812;28;20190;-77
2022/07/28 03:25:46;;;;;;;2.63;1.60;;;;;12.90;101263.00;;;;10471443;28;20207;-76
2022/07/28 03:31:02;;;;;;;5.63;1.97;;;;;12.90;101269.00;;;;10469100;28;20201;-77
2022/07/28 03:36:10;;;;;;;6.13;1.97;;;;;12.90;101260.00;;;;10476978;28;20186;-77
2022/07/28 03:41:15;;;;;;;5.17;1.93;;;;;12.90;101270.00;;;;10479309;28;20319;-76
2022/07/28 03:46:17;;;;;;;3.43;1.67;;;;;12.90;101257.00;;;;10452146;28;20288;-76
2022/07/28 03:51:19;;;;;;;4.40;1.60;;;;;12.90;101267.00;;;;10450975;28;20279;-77
2022/07/28 03:56:21;;;;;;;3.73;1.70;;;;;12.90;101267.00;;;;10500825;28;20189;-76
2022/07/28 04:01:23;;;;;;;5.60;1.53;;;;;13.00;101270.00;;;;10476943;28;20209;-76
2022/07/28 04:06:25;;;;;;;5.20;1.53;;;;;13.00;101271.00;;;;10477017;28;20223;-76
2022/07/28 04:11:27;;;;;;;7.97;2.03;;;;;13.10;101262.00;;;;10507693;28;20186;-76
2022/07/28 04:16:29;;;;;;;3.77;1.37;;;;;13.10;101277.00;;;;10478693;28;20595;-77
2022/07/28 04:21:31;;;;;;;6.23;1.80;;;;;13.10;101268.00;;;;10466339;28;20201;-76
2022/07/28 04:26:33;;;;;;;3.13;1.70;;;;;13.10;101267.00;;;;10483007;28;20197;-77
2022/07/28 04:31:35;;;;;;;5.67;2.30;;;;;13.20;101258.00;;;;10474867;28;20653;-76
2022/07/28 04:36:40;;;;;;;6.90;2.03;;;;;13.30;101265.00;;;;10433153;28;20288;-76
2022/07/28 04:41:42;;;;;;;4.13;1.80;;;;;13.50;101260.00;;;;10474328;28;20219;-77
2022/07/28 04:46:44;;;;;;;5.60;1.93;;;;;13.60;101254.00;;;;10490382;28;20196;-77
2022/07/28 04:51:49;;;;;;;2.73;1.67;;;;;13.70;101245.00;;;;10521958;28;20193;-76
2022/07/28 04:56:51;;;;;;;2.60;1.70;;;;;13.70;101260.00;;;;10490484;28;20204;-77
2022/07/28 05:01:55;;;;;;;6.33;1.70;;;;;13.70;101254.00;;;;10481156;28;20296;-76
2022/07/28 05:06:57;;;;;;;3.87;1.73;;;;;13.70;101257.00;;;;10487317;28;20189;-76
2022/07/28 05:11:59;;;;;;;5.37;2.80;;;;;13.70;101254.00;;;;10514977;28;20325;-76
2022/07/28 05:17:02;;;;;;;2.47;1.53;;;;;13.80;101257.00;;;;10506043;28;20276;-76
2022/07/28 05:22:04;;;;;;;4.57;1.70;;;;;13.70;101259.00;;;;10473589;28;20205;-76
2022/07/28 05:27:06;;;;;;;3.87;1.90;;;;;13.70;101262.00;;;;10505484;28;20199;-76
2022/07/28 05:32:08;;;;;;;11.77;2.20;;;;;13.60;101271.00;;;;10496280;28;20196;-76
2022/07/28 05:37:18;;;;;;;5.13;2.37;;;;;13.60;101272.00;;;;10505421;28;20189;-76
2022/07/28 05:42:20;;;;;;;4.43;2.37;;;;;14.00;101266.00;;;;10488117;28;20679;-76
2022/07/28 05:47:22;;;;;;;7.23;2.20;;;;;14.90;101261.00;;;;10472785;28;20204;-77
2022/07/28 05:52:26;;;;;;;5.53;2.17;;;;;15.70;101270.00;;;;10446693;28;20719;-76
2022/07/28 05:57:28;;;;;;;5.67;1.90;;;;;16.60;101269.00;;;;10504441;28;20513;-76
2022/07/28 06:02:30;;;;;;;7.57;2.07;;;;;17.20;101273.00;;;;10462331;28;20217;-77
2022/07/28 06:07:33;;;;;;;6.00;2.30;;;;;17.50;101272.00;;;;10454344;28;20194;-76
2022/07/28 06:12:55;;;;;;;5.97;2.20;;;;;17.80;101276.00;;;;10460604;28;20189;-76
2022/07/28 06:17:57;;;;;;;3.30;2.28;;;;;18.10;101270.00;;;;10461560;28;20189;-77
2022/07/28 06:23:00;;;;;;;4.15;1.83;;;;;18.40;101270.00;;;;10477523;28;20263;-78
2022/07/28 06:28:03;;;;;;;6.65;2.20;;;;;18.60;101262.00;;;;10477704;28;20236;-76
2022/07/28 06:33:06;;;;;;;5.05;2.00;;;;;18.90;101262.00;;;;10460909;28;20197;-76
2022/07/28 06:38:08;;;;;;;5.35;2.00;;;;;19.20;101261.00;;;;10460138;28;20185;-75
2022/07/28 06:43:13;;;;;;;3.47;1.92;;;;;20.00;101263.00;;;;10460294;28;20212;-75
2022/07/28 06:48:15;;;;;;;5.43;2.33;;;;;20.70;101261.00;;;;10476658;28;20194;-76
2022/07/28 06:53:17;;;;;;;5.72;2.35;;;;;20.60;101269.00;;;;10478057;28;20255;-76
2022/07/28 06:58:19;;;;;;;3.85;1.70;;;;;20.00;101270.00;;;;10474084;28;20694;-77
2022/07/28 07:03:21;;;;;;;5.10;2.47;;;;;19.70;101268.00;;;;10481862;28;20221;-76
2022/07/28 07:08:23;;;;;;;4.70;2.28;;;;;19.70;101265.00;;;;10483815;28;20216;-77
2022/07/28 07:13:25;;;;;;;6.07;2.25;;;;;19.50;101272.00;;;;10473441;28;20200;-76
2022/07/28 07:18:27;;;;;;;5.28;2.28;;;;;19.30;101254.00;;;;10507860;28;20201;-77
2022/07/28 07:23:29;;;;;;;3.88;1.90;;;;;20.60;101263.00;;;;10484570;28;20205;-77
2022/07/28 07:28:33;;;;;;;4.57;2.10;;;;;21.50;101265.00;;;;10499010;28;20208;-77
2022/07/28 07:33:35;;;;;;;7.10;1.90;;;;;22.10;101253.00;;;;10507077;28;20189;-77
2022/07/28 07:38:38;;;;;;;3.72;1.85;;;;;22.20;101249.00;;;;10524122;28;20260;-77
2022/07/28 07:43:40;;;;;;;5.25;2.08;;;;;22.80;101249.00;;;;10476596;28;20625;-77
2022/07/28 07:48:48;;;;;;;3.78;1.80;;;;;23.20;101243.00;;;;10471086;28;20215;-77
2022/07/28 07:53:50;;;;;;;4.55;1.63;;;;;23.30;101238.00;;;;10482995;28;20208;-78
2022/07/28 07:58:52;;;;;;;6.40;2.05;;;;;23.30;101244.00;;;;10501852;28;20232;-77
2022/07/28 08:03:59;;;;;;;3.72;1.98;;;;;23.70;101235.00;;;;10486965;28;20213;-77
2022/07/28 08:09:02;;;;;;;6.25;1.67;;;;;23.70;101225.00;;;;10486669;28;20276;-77
2022/07/28 08:14:04;;;;;;;6.45;1.98;;;;;24.10;101212.00;;;;10511190;28;20202;-78
2022/07/28 08:19:06;;;;;;;2.25;1.75;;;;;24.20;101213.00;;;;10483804;28;20192;-78
2022/07/28 08:24:09;;;;;;;4.55;1.80;;;;;24.00;101199.00;;;;10480567;28;20205;-78
2022/07/28 08:29:19;;;;;;;5.18;2.03;;;;;24.40;101198.00;;;;10489246;28;20193;-77
2022/07/28 08:34:21;;;;;;;5.43;1.65;;;;;24.70;101202.00;;;;10507995;28;20193;-77
2022/07/28 08:39:33;;;;;;;5.25;1.95;;;;;25.50;101210.00;;;;10519115;28;20196;-78
2022/07/28 08:44:57;;;;;;;9.38;1.98;;;;;25.40;101207.00;;;;10514369;28;20262;-75
2022/07/28 08:50:03;;;;;;;4.65;1.98;;;;;24.90;101201.00;;;;10495792;28;20570;-77
2022/07/28 08:55:07;;;;;;;3.47;1.52;;;;;25.30;101211.00;;;;10549421;28;20224;-78
2022/07/28 09:00:11;;;;;;;28.63;3.65;;;;;25.50;101211.00;;;;10487056;28;20231;-77
2022/07/28 09:05:13;;;;;;;11.60;2.50;;;;;25.10;101209.00;;;;10502190;28;20201;-78
2022/07/28 09:10:17;;;;;;;25.38;3.35;;;;;25.10;101197.00;;;;10460228;28;20197;-77
2022/07/28 09:15:19;;;;;;;7.80;1.65;;;;;26.10;101209.00;;;;10474422;28;20182;-76
2022/07/28 09:20:22;;;;;;;4.28;1.48;;;;;26.60;101204.00;;;;10482276;28;20212;-78
2022/07/28 09:25:25;;;;;;;5.47;1.50;;;;;26.80;101208.00;;;;10497263;28;20206;-76
2022/07/28 09:30:32;;;;;;;2.63;1.30;;;;;26.40;101203.00;;;;10486405;28;20263;-76
2022/07/28 09:35:42;;;;;;;4.63;1.80;;;;;26.20;101201.00;;;;10514259;28;20704;-76
2022/07/28 09:40:55;;;;;;;6.90;1.40;;;;;26.80;101205.00;;;;10510034;28;20187;-78
2022/07/28 09:46:09;;;;;;;14.48;2.65;;;;;28.30;101197.00;;;;10491168;28;20205;-76
2022/07/28 09:51:12;;;;;;;6.43;1.40;;;;;29.10;101199.00;;;;10482091;28;20228;-76
2022/07/28 09:56:15;;;;;;;9.90;2.45;;;;;28.90;101191.00;;;;10459679;28;20707;-77
2022/07/28 10:01:19;;;;;;;3.33;1.10;;;;;28.40;101193.00;;;;10488731;28;20215;-77
2022/07/28 10:06:32;;;;;;;3.47;1.25;;;;;29.00;101183.00;;;;10512412;28;20211;-77
2022/07/28 10:11:34;;;;;;;6.07;1.75;;;;;29.40;101185.00;;;;10513363;28;20329;-77
2022/07/28 10:16:45;;;;;;;3.17;1.27;;;;;29.70;101179.00;;;;10502905;28;20609;-77
2022/07/28 10:21:53;;;;;;;5.78;1.55;;;;;28.70;101171.00;;;;10492429;28;20185;-76
2022/07/28 10:26:56;;;;;;;2.72;1.30;;;;;27.90;101164.00;;;;10521157;28;20196;-76
2022/07/28 10:32:04;;;;;;;4.82;1.17;;;;;27.90;101163.00;;;;10481954;28;20683;-75
2022/07/28 10:37:12;;;;;;;3.03;1.42;;;;;27.70;101160.00;;;;10484825;28;20220;-75
2022/07/28 10:42:14;;;;;;;7.15;1.30;;;;;27.70;101152.00;;;;10494712;28;20202;-76
2022/07/28 10:47:18;;;;;;;8.90;1.70;;;;;27.40;101146.00;;;;10502624;28;20185;-76
2022/07/28 10:52:22;;;;;;;3.40;1.23;;;;;27.30;101148.00;;;;10487343;28;20199;-76
2022/07/28 10:58:05;;;;;;;3.20;1.73;;;;;27.50;101146.00;;;;10505590;28;20310;-76
2022/07/28 11:03:32;;;;;;;4.82;1.27;;;;;27.70;101144.00;;;;10491853;28;20212;-76
2022/07/28 11:08:35;;;;;;;5.65;1.60;;;;;27.60;101151.00;;;;10491656;28;20203;-77
2022/07/28 11:13:37;;;;;;;4.35;1.20;;;;;27.40;101141.00;;;;10509404;28;20193;-77
2022/07/28 11:19:17;;;;;;;4.95;1.77;;;;;27.40;101143.00;;;;10520570;28;20201;-76
2022/07/28 11:25:00;;;;;;;5.95;1.58;;;;;27.40;101139.00;;;;10429862;28;20319;-77
2022/07/28 11:30:27;;;;;;;5.97;1.40;;;;;27.40;101143.00;;;;10482505;28;20203;-77
2022/07/28 11:35:50;;;;;;;4.43;1.40;;;;;27.20;101140.00;;;;10473190;28;20194;-77
2022/07/28 11:40:55;;;;;;;2.90;1.35;;;;;27.00;101128.00;;;;10486677;28;20194;-77
2022/07/28 11:46:00;;;;;;;4.63;1.77;;;;;26.80;101114.00;;;;10477445;28;20285;-76
2022/07/28 11:51:02;;;;;;;6.78;1.48;;;;;27.00;101119.00;;;;10507752;28;20673;-76
2022/07/28 11:56:05;;;;;;;4.28;1.33;;;;;27.40;101120.00;;;;10508130;28;20181;-76
2022/07/28 12:01:16;;;;;;;5.30;1.23;;;;;28.30;101115.00;;;;10506952;28;20213;-76
2022/07/28 12:06:22;;;;;;;3.50;1.38;;;;;29.20;101117.00;;;;10477592;28;20292;-76
2022/07/28 12:11:35;;;;;;;3.17;1.17;;;;;30.70;101108.00;;;;10500259;28;20188;-76
2022/07/28 12:16:40;;;;;;;4.32;1.45;;;;;30.10;101104.00;;;;10521621;28;20185;-77
2022/07/28 12:21:47;;;;;;;5.20;1.70;;;;;29.40;101110.00;;;;10464756;28;20198;-78
2022/07/28 12:26:50;;;;;;;2.00;1.20;;;;;29.00;101109.00;;;;10510695;28;20208;-77
2022/07/28 12:32:00;;;;;;;5.78;1.77;;;;;28.70;101108.00;;;;10492249;28;20197;-77
2022/07/28 12:37:08;;;;;;;5.35;1.50;;;;;28.30;101106.00;;;;10434582;28;20203;-77
2022/07/28 12:42:11;;;;;;;3.67;1.30;;;;;28.00;101106.00;;;;10466645;28;20733;-78
2022/07/28 12:47:16;;;;;;;4.50;1.77;;;;;28.30;101094.00;;;;10487412;28;20204;-77
2022/07/28 12:52:23;;;;;;;5.00;1.55;;;;;28.90;101084.00;;;;10455469;28;20193;-77
2022/07/28 12:57:42;;;;;;;6.63;1.60;;;;;28.60;101090.00;;;;10479252;28;20196;-77
2022/07/28 13:02:54;;;;;;;3.97;1.35;;;;;28.30;101077.00;;;;10496671;28;20236;-77
2022/07/28 13:08:02;;;;;;;6.72;1.60;;;;;28.90;101067.00;;;;10521667;28;20188;-76
2022/07/28 13:13:06;;;;;;;3.15;1.38;;;;;30.40;101081.00;;;;10502886;28;20213;-77
2022/07/28 13:18:09;;;;;;;5.75;1.10;;;;;31.20;101076.00;;;;10481146;28;20189;-77
2022/07/28 13:23:10;;;;;;;7.05;1.50;;;;;30.90;101073.00;;;;10460145;28;20221;-77
2022/07/28 13:28:24;;;;;;;6.15;1.77;;;;;30.30;101074.00;;;;10478366;28;20580;-77
2022/07/28 13:33:27;;;;;;;5.35;1.30;;;;;30.00;101060.00;;;;10482304;28;20201;-77
2022/07/28 13:38:29;;;;;;;4.82;1.35;;;;;30.80;101066.00;;;;10502701;28;20189;-77
2022/07/28 13:43:31;;;;;;;4.10;1.45;;;;;29.80;101070.00;;;;10485486;28;20560;-77
2022/07/28 13:48:39;;;;;;;5.25;1.30;;;;;30.10;101063.00;;;;10459557;28;20185;-77
2022/07/28 13:54:00;;;;;;;3.30;1.40;;;;;30.10;101070.00;;;;10462808;28;20229;-78
2022/07/28 13:59:02;;;;;;;6.43;1.48;;;;;29.00;101063.00;;;;10443551;28;20193;-77
2022/07/28 14:04:08;;;;;;;4.05;1.20;;;;;28.70;101059.00;;;;10483225;28;20612;-77
2022/07/28 14:09:17;;;;;;;3.50;1.20;;;;;28.70;101065.00;;;;10484629;28;20203;-77
2022/07/28 14:14:23;;;;;;;3.78;1.30;;;;;29.00;101054.00;;;;10499589;28;20667;-77
2022/07/28 14:19:26;;;;;;;1.55;1.15;;;;;29.80;101053.00;;;;10443922;28;20186;-77
2022/07/28 14:24:41;;;;;;;2.90;1.23;;;;;30.70;101036.00;;;;10466604;28;20193;-77
2022/07/28 14:29:43;;;;;;;3.70;1.30;;;;;30.90;101038.00;;;;10468224;28;20684;-77
2022/07/28 14:34:45;;;;;;;6.80;1.83;;;;;31.10;101039.00;;;;10459906;28;20695;-77
2022/07/28 14:39:47;;;;;;;6.28;1.58;;;;;30.60;101040.00;;;;10484690;28;20272;-77
2022/07/28 14:44:49;;;;;;;9.18;1.30;;;;;31.40;101029.00;;;;10451293;28;20603;-77
2022/07/28 14:49:51;;;;;;;4.75;1.17;;;;;31.80;101037.00;;;;10450458;28;20189;-77
2022/07/28 14:54:59;;;;;;;3.70;1.30;;;;;30.80;101031.00;;;;10466844;28;20185;-77
2022/07/28 15:00:04;;;;;;;5.78;1.48;;;;;29.90;101022.00;;;;10466653;28;20218;-77
2022/07/28 15:05:06;;;;;;;4.22;1.40;;;;;29.50;101024.00;;;;10498321;28;20243;-77
2022/07/28 15:10:09;;;;;;;3.88;1.60;;;;;30.20;101025.00;;;;10491490;28;20205;-77
2022/07/28 15:15:12;;;;;;;8.52;1.30;;;;;29.70;101013.00;;;;10457420;28;20239;-77
2022/07/28 15:20:14;;;;;;;5.07;1.30;;;;;28.70;101016.00;;;;10449760;28;20236;-76
2022/07/28 15:25:16;;;;;;;3.20;1.20;;;;;28.30;101019.00;;;;10448721;28;20217;-77
2022/07/28 15:30:18;;;;;;;5.22;1.50;;;;;27.80;101027.00;;;;10526939;28;20205;-76
2022/07/28 15:35:20;;;;;;;4.40;1.45;;;;;27.60;101030.00;;;;10474440;28;20568;-77
2022/07/28 15:40:22;;;;;;;3.20;1.38;;;;;27.60;101025.00;;;;10470394;28;20189;-76
2022/07/28 15:45:25;;;;;;;5.68;1.48;;;;;27.60;101030.00;;;;10523045;28;20197;-77
2022/07/28 15:50:27;;;;;;;3.78;1.25;;;;;27.30;101028.00;;;;10490010;28;20292;-77
2022/07/28 15:55:29;;;;;;;7.05;1.50;;;;;27.20;101022.00;;;;10488747;28;20227;-77
2022/07/28 16:00:32;;;;;;;2.60;1.20;;;;;27.10;101022.00;;;;10490049;28;20379;-77
2022/07/28 16:05:34;;;;;;;7.20;1.50;;;;;27.10;101017.00;;;;10499678;28;20217;-77
2022/07/28 16:10:36;;;;;;;4.72;1.38;;;;;27.00;101025.00;;;;10466519;28;20281;-78
2022/07/28 16:15:39;;;;;;;4.82;1.38;;;;;26.80;101026.00;;;;10447182;28;20251;-76
2022/07/28 16:20:41;;;;;;;5.53;1.35;;;;;26.70;101024.00;;;;10463899;28;20212;-76
2022/07/28 16:25:43;;;;;;;3.88;1.70;;;;;26.50;101023.00;;;;10488728;28;20434;-76
2022/07/28 16:30:46;;;;;;;4.30;1.25;;;;;26.40;101025.00;;;;10488400;28;20292;-76
2022/07/28 16:35:49;;;;;;;6.65;1.40;;;;;26.40;101024.00;;;;10446749;28;20189;-77
2022/07/28 16:40:53;;;;;;;7.65;1.70;;;;;26.80;101004.00;;;;10479525;28;20204;-76
2022/07/28 16:45:56;;;;;;;5.40;1.35;;;;;27.00;101022.00;;;;10489918;28;20197;-76
2022/07/28 16:50:58;;;;;;;6.38;1.52;;;;;27.00;101007.00;;;;10521880;28;20247;-77
2022/07/28 16:56:00;;;;;;;2.80;1.45;;;;;27.10;101009.00;;;;10446643;28;20192;-76
2022/07/28 17:01:02;;;;;;;3.15;1.30;;;;;27.20;101015.00;;;;10431778;28;21256;-77
2022/07/28 17:06:05;;;;;;;7.30;1.50;;;;;27.20;101024.00;;;;10494695;28;20669;-76
2022/07/28 17:11:07;;;;;;;4.07;1.25;;;;;26.70;101028.00;;;;10462658;28;20186;-77
2022/07/28 17:16:10;;;;;;;8.20;1.50;;;;;25.90;101026.00;;;;10462200;28;20189;-77
2022/07/28 17:21:12;;;;;;;5.68;1.90;;;;;25.50;101018.00;;;;10461941;28;20275;-77
2022/07/28 17:26:14;;;;;;;3.92;1.30;;;;;25.40;101019.00;;;;10460839;28;20213;-77
2022/07/28 17:31:37;;;;;;;5.65;1.27;;;;;25.50;101007.00;;;;10468993;28;20739;-76
2022/07/28 17:36:40;;;;;;;6.75;1.42;;;;;25.40;101000.00;;;;10457823;28;20201;-76
2022/07/28 17:41:43;;;;;;;6.05;1.30;;;;;25.30;101011.00;;;;10461514;28;20217;-76
2022/07/28 17:46:47;;;;;;;4.68;1.50;;;;;25.20;101007.00;;;;10477429;28;20229;-76
2022/07/28 17:51:49;;;;;;;2.65;1.42;;;;;25.30;101004.00;;;;10477468;28;20194;-77
2022/07/28 17:56:51;;;;;;;6.45;1.60;;;;;25.40;101003.00;;;;10460723;28;20194;-76
2022/07/28 18:01:54;;;;;;;2.60;1.10;;;;;25.20;101001.00;;;;10476855;28;20218;-77
2022/07/28 18:06:56;;;;;;;2.88;1.33;;;;;25.00;101009.00;;;;10491185;28;20205;-77
2022/07/28 18:11:58;;;;;;;2.85;1.23;;;;;24.80;101024.00;;;;10502362;28;20612;-76
2022/07/28 18:17:00;;;;;;;3.03;1.50;;;;;24.50;101015.00;;;;10484250;28;20659;-76
2022/07/28 18:22:02;;;;;;;6.10;1.75;;;;;24.20;101025.00;;;;10476575;28;20198;-76
2022/07/28 18:27:04;;;;;;;4.00;1.40;;;;;23.90;101015.00;;;;10462586;28;20240;-77
2022/07/28 18:32:07;;;;;;;4.03;1.23;;;;;23.70;101013.00;;;;10473371;28;20194;-76
2022/07/28 18:37:14;;;;;;;4.13;1.42;;;;;23.60;101021.00;;;;10476099;28;20200;-77
2022/07/28 18:42:16;;;;;;;6.10;1.77;;;;;23.30;101023.00;;;;10492506;28;20186;-76
2022/07/28 18:47:19;;;;;;;4.57;1.30;;;;;23.10;101022.00;;;;10491898;28;20214;-76
2022/07/28 18:52:22;;;;;;;4.22;1.70;;;;;22.90;101024.00;;;;10459549;28;20228;-76
2022/07/28 18:57:24;;;;;;;3.47;1.17;;;;;22.80;101036.00;;;;10459268;28;20198;-76
2022/07/28 19:02:26;;;;;;;4.72;1.42;;;;;22.70;101039.00;;;;10456879;28;20213;-76
2022/07/28 19:07:29;;;;;;;2.88;1.35;;;;;22.60;101039.00;;;;10502283;28;20204;-76
2022/07/28 19:12:32;;;;;;;2.55;1.20;;;;;22.50;101039.00;;;;10495174;28;20253;-77
2022/07/28 19:17:35;;;;;;;4.97;1.65;;;;;22.30;101033.00;;;;10508259;28;20185;-76
2022/07/28 19:22:38;;;;;;;2.45;1.30;;;;;22.10;101043.00;;;;10507606;28;20197;-76
2022/07/28 19:27:41;;;;;;;3.40;1.40;;;;;21.80;101048.00;;;;10508117;28;20224;-76
2022/07/28 19:32:43;;;;;;;7.32;1.48;;;;;21.60;101051.00;;;;10473385;28;20301;-76
2022/07/28 19:37:45;;;;;;;6.95;1.30;;;;;21.40;101060.00;;;;10466012;28;20182;-77
2022/07/28 19:42:47;;;;;;;4.40;1.60;;;;;21.20;101060.00;;;;10466246;28;20193;-76
2022/07/28 19:47:49;;;;;;;3.25;1.40;;;;;21.00;101073.00;;;;10452719;28;20251;-76
2022/07/28 19:52:51;;;;;;;5.28;1.40;;;;;20.80;101073.00;;;;10448857;28;20280;-76
2022/07/28 19:57:54;;;;;;;3.92;1.27;;;;;20.80;101089.00;;;;10448262;28;20190;-76
2022/07/28 20:02:56;;;;;;;5.80;1.75;;;;;20.70;101091.00;;;;10465954;28;20583;-76
2022/07/28 20:07:58;;;;;;;3.67;1.15;;;;;20.60;101088.00;;;;10480399;28;20209;-76
2022/07/28 20:13:01;;;;;;;10.20;2.05;;;;;20.50;101099.00;;;;10489992;28;20193;-76
2022/07/28 20:18:03;;;;;;;4.30;1.30;;;;;20.50;101106.00;;;;10478836;28;20193;-76
2022/07/28 20:23:05;;;;;;;9.75;2.13;;;;;20.40;101091.00;;;;10447023;28;20208;-76
2022/07/28 20:28:08;;;;;;;3.53;1.20;;;;;20.30;101093.00;;;;10463365;28;20416;-76
2022/07/28 20:33:10;;;;;;;4.53;1.25;;;;;20.20;101109.00;;;;10444375;28;20201;-76
2022/07/28 20:38:12;;;;;;;3.67;1.23;;;;;20.20;101112.00;;;;10463786;28;20219;-76
2022/07/28 20:43:14;;;;;;;5.93;1.52;;;;;20.10;101118.00;;;;10463698;28;20296;-76
2022/07/28 20:48:16;;;;;;;3.00;1.48;;;;;20.10;101119.00;;;;10495230;28;20193;-76
2022/07/28 20:53:18;;;;;;;5.35;1.50;;;;;20.10;101121.00;;;;10505075;28;20843;-77
2022/07/28 20:58:20;;;;;;;2.50;1.30;;;;;20.10;101126.00;;;;10471694;28;20231;-78
2022/07/28 21:03:24;;;;;;;3.60;1.30;;;;;20.10;101134.00;;;;10473878;28;20216;-76
2022/07/28 21:08:27;;;;;;;5.88;1.10;;;;;20.00;101128.00;;;;10487698;28;20205;-76
2022/07/28 21:13:29;;;;;;;4.18;1.50;;;;;20.00;101133.00;;;;10470569;28;20189;-77
2022/07/28 21:18:31;;;;;;;5.97;1.55;;;;;20.00;101131.00;;;;10486477;28;20205;-77
2022/07/28 21:23:33;;;;;;;5.03;1.45;;;;;19.90;101127.00;;;;10519760;28;20189;-76
2022/07/28 21:33:56;;;;;;;2.00;1.10;;;;;19.60;101126.00;;;;10475297;28;20200;-76
2022/07/28 21:38:58;;;;;;;4.53;1.20;;;;;19.60;101132.00;;;;10444206;28;20190;-78
2022/07/28 21:44:01;;;;;;;4.60;1.55;;;;;19.50;101128.00;;;;10444122;28;20301;-77
2022/07/28 21:49:05;;;;;;;6.40;1.63;;;;;19.40;101132.00;;;;10481191;28;20907;-76
2022/07/28 21:54:07;;;;;;;7.13;1.30;;;;;19.40;101137.00;;;;10502809;28;20185;-76
2022/07/28 21:59:09;;;;;;;3.58;1.48;;;;;19.30;101137.00;;;;10476146;28;20229;-76
2022/07/28 22:04:11;;;;;;;4.03;1.30;;;;;19.20;101132.00;;;;10500157;28;20216;-77
2022/07/28 22:09:14;;;;;;;7.45;1.60;;;;;19.20;101126.00;;;;10484982;28;20201;-77
2022/07/28 22:14:16;;;;;;;3.40;1.38;;;;;19.10;101129.00;;;;10500806;28;20189;-77
2022/07/28 22:19:18;;;;;;;3.17;1.23;;;;;19.10;101122.00;;;;10460126;28;20189;-76
2022/07/28 22:24:21;;;;;;;2.88;1.45;;;;;19.00;101134.00;;;;10443786;28;20237;-77
2022/07/28 22:29:23;;;;;;;5.28;1.55;;;;;18.90;101116.00;;;;10478170;28;20208;-76
2022/07/28 22:34:26;;;;;;;3.38;1.40;;;;;18.90;101133.00;;;;10454108;28;20193;-77
2022/07/28 22:39:28;;;;;;;4.63;1.27;;;;;18.80;101120.00;;;;10491872;28;20667;-76
2022/07/28 22:44:31;;;;;;;4.13;1.17;;;;;18.80;101128.00;;;;10445247;28;20207;-76
2022/07/28 22:49:34;;;;;;;3.65;1.55;;;;;18.70;101132.00;;;;10482655;28;20276;-77
2022/07/28 22:54:37;;;;;;;3.85;1.45;;;;;18.60;101123.00;;;;10508819;28;20277;-77
2022/07/28 22:59:40;;;;;;;3.53;1.48;;;;;18.50;101133.00;;;;10466626;28;20213;-76
2022/07/28 23:04:50;;;;;;;2.88;1.40;;;;;18.50;101133.00;;;;10493978;28;20201;-76
2022/07/28 23:09:57;;;;;;;3.92;1.50;;;;;18.40;101134.00;;;;10455166;28;20263;-77
2022/07/28 23:14:59;;;;;;;6.15;1.70;;;;;18.30;101132.00;;;;10491739;28;20211;-77
2022/07/28 23:20:01;;;;;;;4.93;1.40;;;;;18.20;101126.00;;;;10473030;28;20208;-76
2022/07/28 23:25:03;;;;;;;5.78;1.20;;;;;18.10;101131.00;;;;10474425;28;20211;-76
2022/07/28 23:30:06;;;;;;;3.70;1.38;;;;;18.00;101127.00;;;;10490303;28;20304;-76
2022/07/28 23:35:08;;;;;;;2.00;1.70;;;;;17.80;101124.00;;;;10477562;28;20619;-76
2022/07/28 23:40:10;;;;;;;4.00;1.45;;;;;17.80;101126.00;;;;10449896;28;20231;-76
2022/07/28 23:45:12;;;;;;;3.57;1.70;;;;;17.70;101130.00;;;;10438238;28;20452;-76
2022/07/28 23:50:15;;;;;;;2.97;1.63;;;;;17.70;101126.00;;;;10497751;28;20675;-76
2022/07/28 23:55:17;;;;;;;2.00;1.40;;;;;17.60;101119.00;;;;10447908;28;20210;-77
